Time;durP1;ratioP1;P1;durP2;ratioP2;P2;SDS_P1;SDS_P2;PMS_P1;PMS_P2;Temp;Humidity;BMP_temperature;BMP_pressure;BME280_temperature;BME280_humidity;BME280_pressure;Samples;Min_cycle;Max_cycle;Signal;HPM_P1;HPM_P2
2023/09/02 00:01:50;;;;;;;5.70;1.10;;;20.70;99.90;;;;;;5111091;28;20539;-69
2023/09/02 00:04:17;;;;;;;5.40;1.10;;;21.30;99.90;;;;;;5111263;28;20183;-70
2023/09/02 00:06:45;;;;;;;3.60;1.00;;;21.50;99.90;;;;;;5111518;28;20198;-69
2023/09/02 00:09:13;;;;;;;2.53;1.00;;;21.40;99.90;;;;;;5111628;28;20186;-70
2023/09/02 00:11:40;;;;;;;2.27;0.70;;;21.20;99.90;;;;;;5110806;28;20182;-69
2023/09/02 00:14:08;;;;;;;1.20;0.80;;;22.10;99.90;;;;;;5111965;28;20450;-68
2023/09/02 00:16:36;;;;;;;2.40;0.90;;;22.10;98.90;;;;;;5111459;28;20185;-70
2023/09/02 00:19:04;;;;;;;2.60;0.70;;;22.30;99.90;;;;;;5110707;28;20189;-69
2023/09/02 00:21:33;;;;;;;4.70;0.90;;;22.20;99.90;;;;;;5111056;28;20217;-70
2023/09/02 00:24:07;;;;;;;2.10;0.97;;;21.80;99.90;;;;;;5111375;28;20186;-69
2023/09/02 00:26:35;;;;;;;1.40;0.70;;;21.80;99.90;;;;;;5110882;28;20218;-69
2023/09/02 00:29:03;;;;;;;4.30;0.67;;;22.60;98.50;;;;;;5112970;28;20186;-69
2023/09/02 00:31:31;;;;;;;1.27;0.70;;;22.60;99.90;;;;;;5115196;28;20185;-69
2023/09/02 00:33:58;;;;;;;2.47;0.87;;;23.30;94.40;;;;;;5114694;28;20810;-69
2023/09/02 00:36:30;;;;;;;2.93;0.40;;;23.30;94.60;;;;;;5122065;27;20268;-69
2023/09/02 00:38:59;;;;;;;3.70;0.73;;;23.60;96.10;;;;;;5123136;27;20599;-69
2023/09/02 00:41:38;;;;;;;3.43;0.70;;;23.50;93.70;;;;;;5134989;27;20185;-69
2023/09/02 00:44:07;;;;;;;1.70;0.50;;;23.70;91.90;;;;;;5119269;27;20182;-69
2023/09/02 00:46:35;;;;;;;4.37;0.70;;;24.30;87.50;;;;;;5114818;28;20202;-69
2023/09/02 00:49:03;;;;;;;1.77;0.70;;;24.60;82.90;;;;;;5119641;27;20182;-67
2023/09/02 00:51:30;;;;;;;1.80;0.50;;;24.30;90.90;;;;;;5125778;27;20887;-68
2023/09/02 00:53:58;;;;;;;1.80;0.67;;;24.20;87.70;;;;;;5135518;27;20181;-67
2023/09/02 00:56:27;;;;;;;6.40;1.07;;;23.70;83.80;;;;;;5135090;27;20212;-68
2023/09/02 00:58:58;;;;;;;2.60;0.70;;;23.80;83.50;;;;;;5128450;27;20175;-68
2023/09/02 01:01:27;;;;;;;3.60;1.00;;;23.20;84.40;;;;;;5114658;28;20222;-67
2023/09/02 01:03:55;;;;;;;1.87;0.73;;;22.20;93.50;;;;;;5114268;28;20763;-70
2023/09/02 01:06:23;;;;;;;3.13;0.50;;;22.60;91.80;;;;;;5096103;28;20217;-67
2023/09/02 01:08:52;;;;;;;5.17;1.03;;;23.60;90.20;;;;;;5117491;27;20186;-67
2023/09/02 01:11:19;;;;;;;6.10;0.90;;;24.00;83.10;;;;;;5124813;27;20177;-68
2023/09/02 01:13:48;;;;;;;1.87;0.90;;;23.40;91.70;;;;;;5135440;27;20181;-69
2023/09/02 01:16:15;;;;;;;1.73;0.93;;;23.60;94.00;;;;;;5117073;27;20225;-68
2023/09/02 01:18:43;;;;;;;1.90;0.70;;;23.40;93.10;;;;;;5113618;28;20214;-68
2023/09/02 01:21:20;;;;;;;1.57;0.73;;;22.80;93.20;;;;;;5114232;28;20178;-68
2023/09/02 01:24:15;;;;;;;2.13;0.57;;;23.70;96.70;;;;;;5114597;28;20186;-68
2023/09/02 01:26:54;;;;;;;1.13;0.67;;;24.70;87.10;;;;;;5113876;28;20209;-68
2023/09/02 01:29:25;;;;;;;3.13;0.90;;;25.30;73.50;;;;;;5113819;28;20183;-68
2023/09/02 01:31:54;;;;;;;3.30;0.77;;;24.90;72.60;;;;;;5114103;28;20608;-68
2023/09/02 01:34:24;;;;;;;5.57;0.80;;;24.00;76.10;;;;;;5113658;28;20636;-68
2023/09/02 01:36:53;;;;;;;2.77;0.70;;;23.80;79.10;;;;;;5114046;28;20315;-67
2023/09/02 01:39:23;;;;;;;2.20;0.60;;;24.10;80.90;;;;;;5111592;28;20232;-67
2023/09/02 01:41:53;;;;;;;2.73;0.90;;;23.70;76.90;;;;;;5099899;28;20213;-68
2023/09/02 01:44:21;;;;;;;2.40;0.90;;;22.70;86.30;;;;;;5113792;28;20258;-68
2023/09/02 01:46:49;;;;;;;2.93;0.70;;;22.00;91.50;;;;;;5113541;28;20238;-68
2023/09/02 01:49:17;;;;;;;2.80;0.73;;;21.30;94.60;;;;;;5113078;28;20183;-68
2023/09/02 01:51:46;;;;;;;6.10;1.30;;;20.80;96.40;;;;;;5113927;28;20247;-68
2023/09/02 01:54:14;;;;;;;2.40;1.00;;;20.60;99.20;;;;;;5113707;28;20182;-68
2023/09/02 01:56:42;;;;;;;2.77;1.00;;;20.40;99.90;;;;;;5113374;28;20185;-67
2023/09/02 01:59:10;;;;;;;3.27;1.40;;;20.20;99.90;;;;;;5113776;28;20192;-69
2023/09/02 02:01:37;;;;;;;3.53;0.93;;;20.40;99.90;;;;;;5095537;28;20282;-68
2023/09/02 02:04:15;;;;;;;2.07;0.90;;;20.30;99.90;;;;;;5113362;28;20238;-68
2023/09/02 02:06:46;;;;;;;5.77;1.70;;;20.30;99.90;;;;;;5113826;28;20203;-67
2023/09/02 02:09:19;;;;;;;2.73;1.00;;;21.30;99.90;;;;;;5113540;28;20319;-68
2023/09/02 02:11:48;;;;;;;4.20;0.70;;;22.40;98.90;;;;;;5094900;28;20294;-68
2023/09/02 02:14:16;;;;;;;3.53;0.70;;;23.30;99.90;;;;;;5113537;28;20190;-68
2023/09/02 02:16:43;;;;;;;5.30;1.57;;;24.20;91.60;;;;;;5113336;28;20800;-67
2023/09/02 02:19:11;;;;;;;5.57;1.10;;;25.10;82.60;;;;;;5112710;28;20179;-67
2023/09/02 02:21:39;;;;;;;10.10;1.33;;;25.40;83.80;;;;;;5112727;28;20230;-68
2023/09/02 02:24:07;;;;;;;4.60;1.20;;;24.80;75.80;;;;;;5113291;28;20190;-68
2023/09/02 02:26:35;;;;;;;1.23;0.70;;;24.60;75.30;;;;;;5112641;28;20612;-68
2023/09/02 02:29:02;;;;;;;2.47;1.00;;;23.50;75.50;;;;;;5112880;28;20166;-68
2023/09/02 02:31:30;;;;;;;4.03;1.10;;;22.50;83.50;;;;;;5112757;28;20720;-68
2023/09/02 02:33:58;;;;;;;2.07;1.00;;;21.80;89.20;;;;;;5112558;28;20185;-68
2023/09/02 02:36:25;;;;;;;2.37;0.80;;;21.20;91.40;;;;;;5094569;28;20576;-69
2023/09/02 02:38:53;;;;;;;2.30;0.80;;;20.30;96.20;;;;;;5094379;28;20182;-69
2023/09/02 02:41:21;;;;;;;3.20;0.70;;;20.10;99.90;;;;;;5111903;28;20204;-69
2023/09/02 02:43:49;;;;;;;3.93;0.80;;;20.10;99.90;;;;;;5112825;28;20185;-69
2023/09/02 02:46:16;;;;;;;2.50;0.70;;;20.80;99.90;;;;;;5112645;28;20208;-70
2023/09/02 02:48:44;;;;;;;4.60;1.07;;;21.90;98.90;;;;;;5112238;28;20550;-71
2023/09/02 02:51:12;;;;;;;5.17;0.70;;;22.60;95.50;;;;;;5112129;28;20167;-69
2023/09/02 02:53:40;;;;;;;5.33;1.23;;;23.60;92.10;;;;;;5111994;28;20186;-70
2023/09/02 02:56:07;;;;;;;2.30;1.03;;;23.70;83.50;;;;;;5112129;28;20167;-69
2023/09/02 02:58:35;;;;;;;4.43;1.00;;;24.10;80.80;;;;;;5112735;28;20183;-69
2023/09/02 03:01:08;;;;;;;3.10;0.73;;;23.90;80.90;;;;;;5112066;28;20197;-69
2023/09/02 03:03:36;;;;;;;1.70;0.60;;;23.90;80.30;;;;;;5111962;28;20200;-70
2023/09/02 03:06:04;;;;;;;3.60;1.00;;;24.40;85.40;;;;;;5093780;28;20574;-69
2023/09/02 03:08:33;;;;;;;3.47;0.67;;;24.80;74.30;;;;;;5112400;28;20174;-70
2023/09/02 03:11:02;;;;;;;4.87;1.10;;;25.30;67.60;;;;;;5111470;28;20669;-70
2023/09/02 03:13:33;;;;;;;1.93;0.80;;;25.80;65.00;;;;;;5112204;28;20174;-70
2023/09/02 03:16:02;;;;;;;1.43;0.70;;;25.20;58.90;;;;;;5112389;28;20513;-70
2023/09/02 03:18:30;;;;;;;2.03;0.50;;;24.50;68.50;;;;;;5111991;28;20170;-70
2023/09/02 03:21:05;;;;;;;2.63;0.70;;;24.70;74.50;;;;;;5111996;28;20600;-70
2023/09/02 03:23:36;;;;;;;3.77;0.93;;;25.10;69.80;;;;;;5114024;27;20229;-70
2023/09/02 03:26:17;;;;;;;1.50;0.40;;;25.20;65.50;;;;;;5111763;28;20198;-70
2023/09/02 03:28:45;;;;;;;2.17;0.57;;;25.50;63.40;;;;;;5112093;28;20271;-70
2023/09/02 03:31:13;;;;;;;2.90;0.40;;;25.90;55.20;;;;;;5111341;28;20185;-68
2023/09/02 03:33:44;;;;;;;2.90;0.70;;;25.50;59.50;;;;;;5111508;28;20239;-68
2023/09/02 03:36:22;;;;;;;1.70;0.60;;;24.10;62.40;;;;;;5111526;28;20624;-68
2023/09/02 03:38:50;;;;;;;1.87;0.60;;;23.10;64.50;;;;;;5111339;28;20190;-68
2023/09/02 03:41:18;;;;;;;1.63;0.50;;;22.70;71.10;;;;;;5111200;28;20193;-68
2023/09/02 03:43:46;;;;;;;2.50;0.80;;;22.20;74.00;;;;;;5111795;28;20217;-68
2023/09/02 03:46:14;;;;;;;6.50;1.30;;;21.90;77.70;;;;;;5111272;28;20207;-70
2023/09/02 03:48:42;;;;;;;6.30;0.97;;;21.70;81.50;;;;;;5111678;28;20190;-69
2023/09/02 03:51:16;;;;;;;3.33;0.97;;;21.50;90.30;;;;;;5111609;28;20217;-68
2023/09/02 03:53:44;;;;;;;2.27;0.87;;;21.20;92.30;;;;;;5110490;28;20244;-67
2023/09/02 03:56:12;;;;;;;2.90;0.80;;;20.80;98.00;;;;;;5111880;28;20640;-68
2023/09/02 03:58:40;;;;;;;2.83;1.17;;;20.60;99.90;;;;;;5111494;28;20235;-69
2023/09/02 04:01:07;;;;;;;4.37;1.30;;;20.40;99.90;;;;;;5110798;28;20178;-68
2023/09/02 04:03:35;;;;;;;7.13;1.10;;;20.40;99.90;;;;;;5112824;28;20181;-68
2023/09/02 04:06:04;;;;;;;3.87;1.30;;;20.40;99.90;;;;;;5115811;28;20244;-69
2023/09/02 04:08:36;;;;;;;2.87;1.30;;;20.20;99.90;;;;;;5115218;28;20189;-69
2023/09/02 04:11:04;;;;;;;4.73;1.10;;;20.10;99.90;;;;;;5116528;28;20188;-70
2023/09/02 04:13:32;;;;;;;3.93;1.20;;;20.10;99.90;;;;;;5116689;28;20175;-70
2023/09/02 04:16:01;;;;;;;2.30;1.00;;;19.90;99.90;;;;;;5117312;28;20233;-70
2023/09/02 04:18:30;;;;;;;6.37;1.00;;;19.70;99.90;;;;;;5098852;28;20186;-69
2023/09/02 04:21:03;;;;;;;4.47;1.10;;;19.70;99.90;;;;;;5116775;28;20246;-68
2023/09/02 04:23:31;;;;;;;3.37;1.10;;;19.90;99.90;;;;;;5116804;28;20285;-70
2023/09/02 04:25:59;;;;;;;5.93;1.07;;;19.90;99.90;;;;;;5101883;28;20230;-69
2023/09/02 04:28:27;;;;;;;2.40;1.07;;;19.80;99.90;;;;;;5116425;28;20552;-69
2023/09/02 04:30:59;;;;;;;1.70;0.77;;;20.60;99.90;;;;;;5116638;28;20189;-69
2023/09/02 04:33:27;;;;;;;1.63;0.90;;;21.40;99.90;;;;;;5100506;28;20243;-69
2023/09/02 04:35:55;;;;;;;3.07;1.10;;;22.00;99.90;;;;;;5115109;28;20564;-69
2023/09/02 04:38:23;;;;;;;3.93;1.00;;;22.20;99.90;;;;;;5115312;28;20175;-70
2023/09/02 04:40:50;;;;;;;3.10;1.20;;;21.70;99.90;;;;;;5114476;28;20185;-69
2023/09/02 04:43:18;;;;;;;4.47;1.07;;;20.90;99.90;;;;;;5115427;28;20525;-69
2023/09/02 04:45:46;;;;;;;6.13;1.13;;;20.30;99.90;;;;;;5115069;28;20183;-69
2023/09/02 04:48:15;;;;;;;3.93;1.00;;;19.70;99.90;;;;;;5114730;28;20225;-68
2023/09/02 04:50:51;;;;;;;3.83;1.00;;;19.50;99.90;;;;;;5120319;27;20186;-70
2023/09/02 04:53:19;;;;;;;4.33;1.07;;;19.60;99.90;;;;;;5121195;27;20225;-69
2023/09/02 04:55:47;;;;;;;6.50;1.20;;;19.90;99.90;;;;;;5113931;28;20641;-68
2023/09/02 04:58:15;;;;;;;4.87;1.30;;;20.20;99.90;;;;;;5114329;28;20201;-68
2023/09/02 05:00:42;;;;;;;4.40;1.10;;;20.20;99.90;;;;;;5120731;27;20644;-69
2023/09/02 05:03:10;;;;;;;3.47;1.00;;;20.10;99.90;;;;;;5124136;27;20177;-69
2023/09/02 05:05:38;;;;;;;4.07;1.30;;;20.20;99.90;;;;;;5116942;27;20174;-68
2023/09/02 05:08:05;;;;;;;6.10;1.03;;;20.20;99.90;;;;;;5124303;27;20217;-68
2023/09/02 05:13:55;;;;;;;3.90;1.03;;;20.50;99.90;;;;;;5127768;27;20243;-67
2023/09/02 05:16:23;;;;;;;4.20;0.90;;;20.50;99.90;;;;;;5132616;27;20187;-67
2023/09/02 05:18:51;;;;;;;3.97;0.93;;;20.50;99.90;;;;;;5114488;28;20190;-69
2023/09/02 05:21:18;;;;;;;4.47;1.17;;;20.30;99.90;;;;;;5114443;28;20543;-67
2023/09/02 05:23:46;;;;;;;5.00;1.13;;;20.30;99.90;;;;;;5114063;28;20187;-67
2023/09/02 05:26:14;;;;;;;3.60;0.73;;;20.20;99.90;;;;;;5095883;28;20179;-67
2023/09/02 05:28:41;;;;;;;3.93;1.17;;;20.10;99.90;;;;;;5126492;27;20190;-67
2023/09/02 05:31:09;;;;;;;2.53;0.93;;;20.00;99.90;;;;;;5113917;28;20553;-67
2023/09/02 05:33:37;;;;;;;4.10;1.20;;;20.10;99.90;;;;;;5114124;28;20178;-67
2023/09/02 05:36:04;;;;;;;6.43;0.93;;;20.10;99.90;;;;;;5114194;28;20182;-69
2023/09/02 05:38:32;;;;;;;6.43;1.20;;;19.90;99.90;;;;;;5113700;28;20729;-68
2023/09/02 05:41:00;;;;;;;4.03;1.03;;;19.70;99.90;;;;;;5114005;28;20185;-68
2023/09/02 05:43:28;;;;;;;5.07;1.23;;;19.70;99.90;;;;;;5113505;28;20189;-69
2023/09/02 05:46:00;;;;;;;3.30;1.07;;;19.50;99.90;;;;;;5113479;28;20187;-68
2023/09/02 05:48:28;;;;;;;6.80;1.47;;;19.50;99.90;;;;;;5116803;27;20190;-68
2023/09/02 05:50:59;;;;;;;3.50;0.90;;;19.40;99.90;;;;;;5113818;28;20166;-67
2023/09/02 05:53:26;;;;;;;7.37;1.33;;;19.30;99.90;;;;;;5113019;28;20196;-70
2023/09/02 05:55:55;;;;;;;5.43;1.30;;;19.40;99.90;;;;;;5113731;28;20174;-68
2023/09/02 05:58:30;;;;;;;3.80;1.13;;;19.40;99.90;;;;;;5113692;28;20278;-68
2023/09/02 06:01:03;;;;;;;5.10;1.30;;;19.40;99.90;;;;;;5113029;28;20632;-68
2023/09/02 06:03:31;;;;;;;3.47;1.10;;;19.30;99.90;;;;;;5113451;28;20539;-69
2023/09/02 06:05:58;;;;;;;4.40;1.07;;;19.10;99.90;;;;;;5113478;28;20175;-69
2023/09/02 06:08:26;;;;;;;5.37;1.13;;;19.10;99.90;;;;;;5113009;28;20182;-69
2023/09/02 06:11:01;;;;;;;4.33;0.93;;;19.10;99.90;;;;;;5113972;28;20254;-68
2023/09/02 06:13:29;;;;;;;3.37;1.20;;;19.00;99.90;;;;;;5114568;28;20246;-69
2023/09/02 06:16:04;;;;;;;3.77;1.17;;;18.90;99.90;;;;;;5115380;28;20270;-68
2023/09/02 06:18:32;;;;;;;5.40;1.50;;;18.90;99.90;;;;;;5115372;28;20186;-68
2023/09/02 06:21:10;;;;;;;6.97;1.00;;;18.80;99.90;;;;;;5115164;28;20582;-68
2023/09/02 06:23:41;;;;;;;5.07;1.33;;;18.90;99.90;;;;;;5096288;28;20206;-68
2023/09/02 06:26:08;;;;;;;6.93;1.10;;;18.90;99.90;;;;;;5114698;28;20265;-68
2023/09/02 06:28:36;;;;;;;6.03;1.10;;;18.80;99.90;;;;;;5117714;27;20217;-69
2023/09/02 06:31:08;;;;;;;3.70;1.03;;;18.80;99.90;;;;;;5104779;27;20273;-68
2023/09/02 06:33:36;;;;;;;4.83;1.10;;;18.70;99.90;;;;;;5115425;27;20193;-68
2023/09/02 06:36:12;;;;;;;3.97;1.10;;;18.60;99.90;;;;;;5133074;27;20233;-69
2023/09/02 06:38:39;;;;;;;8.60;1.30;;;18.50;99.90;;;;;;5132120;27;20542;-69
2023/09/02 06:41:11;;;;;;;5.67;1.00;;;18.60;99.90;;;;;;5112577;28;20227;-69
2023/09/02 06:43:39;;;;;;;7.00;1.20;;;18.50;99.90;;;;;;5112627;28;20182;-69
2023/09/02 06:46:15;;;;;;;8.53;1.60;;;18.50;99.90;;;;;;5112778;28;20189;-69
2023/09/02 06:48:46;;;;;;;4.47;1.20;;;18.50;99.90;;;;;;5112894;28;20195;-69
2023/09/02 06:51:15;;;;;;;3.80;1.40;;;18.30;99.90;;;;;;5112599;28;20667;-69
2023/09/02 06:53:43;;;;;;;6.40;1.30;;;18.10;99.90;;;;;;5111754;28;20189;-69
2023/09/02 06:56:12;;;;;;;7.17;1.33;;;18.00;99.90;;;;;;5112711;28;20254;-69
2023/09/02 06:58:42;;;;;;;5.27;1.23;;;17.90;99.90;;;;;;5112569;28;20220;-70
2023/09/02 07:01:23;;;;;;;4.33;1.00;;;17.80;99.90;;;;;;5111871;28;20847;-70
2023/09/02 07:03:53;;;;;;;4.03;1.00;;;17.60;99.90;;;;;;5112583;28;20174;-69
2023/09/02 07:06:21;;;;;;;5.07;1.10;;;17.60;99.90;;;;;;5112424;28;20194;-69
2023/09/02 07:08:49;;;;;;;7.37;1.07;;;17.50;99.90;;;;;;5111832;28;20594;-69
2023/09/02 07:11:17;;;;;;;5.47;1.10;;;17.40;99.90;;;;;;5112091;28;20186;-69
2023/09/02 07:13:48;;;;;;;2.57;1.27;;;17.40;99.90;;;;;;5112202;28;20270;-69
2023/09/02 07:16:16;;;;;;;4.33;1.53;;;17.20;99.90;;;;;;5111952;28;20247;-70
2023/09/02 07:18:43;;;;;;;3.53;0.83;;;17.10;99.90;;;;;;5112031;28;20171;-70
2023/09/02 07:21:12;;;;;;;7.77;1.23;;;17.00;99.90;;;;;;5111952;28;20174;-70
2023/09/02 07:23:39;;;;;;;6.67;1.50;;;16.80;99.90;;;;;;5111643;28;20213;-70
2023/09/02 07:26:08;;;;;;;9.30;1.63;;;16.70;99.90;;;;;;5112249;28;20198;-70
2023/09/02 07:28:37;;;;;;;8.90;1.40;;;16.60;99.90;;;;;;5112251;28;20235;-70
2023/09/02 07:31:05;;;;;;;4.57;1.40;;;16.60;99.90;;;;;;5111139;28;20270;-70
2023/09/02 07:33:33;;;;;;;6.43;1.30;;;16.40;99.90;;;;;;5111827;28;20182;-70
2023/09/02 07:36:10;;;;;;;5.30;1.40;;;16.20;99.90;;;;;;5112118;28;20167;-70
2023/09/02 07:38:39;;;;;;;4.90;1.37;;;16.10;99.90;;;;;;5110680;28;20230;-70
2023/09/02 07:41:09;;;;;;;4.50;1.03;;;16.00;99.90;;;;;;5111169;28;20178;-70
2023/09/02 07:43:37;;;;;;;3.23;1.40;;;15.90;99.90;;;;;;5111835;28;20185;-70
2023/09/02 07:46:05;;;;;;;6.27;1.17;;;15.80;99.90;;;;;;5111468;28;20188;-69
2023/09/02 07:48:32;;;;;;;7.83;1.30;;;15.70;99.90;;;;;;5111766;28;20655;-70
2023/09/02 07:51:00;;;;;;;6.20;1.27;;;15.70;99.90;;;;;;5111292;28;20554;-70
2023/09/02 07:53:29;;;;;;;7.70;1.20;;;15.60;99.90;;;;;;5111250;28;20765;-69
2023/09/02 07:55:57;;;;;;;4.20;1.43;;;15.50;99.90;;;;;;5111876;28;20548;-69
2023/09/02 07:58:25;;;;;;;9.27;1.20;;;15.40;99.90;;;;;;5111706;28;20253;-70
2023/09/02 08:00:56;;;;;;;3.27;1.33;;;15.30;99.90;;;;;;5110875;28;20178;-70
2023/09/02 08:03:24;;;;;;;4.23;1.40;;;15.30;99.90;;;;;;5111772;28;20192;-68
2023/09/02 08:05:52;;;;;;;3.73;1.20;;;15.20;99.90;;;;;;5111546;28;20242;-69
2023/09/02 08:08:20;;;;;;;5.10;1.70;;;15.20;99.90;;;;;;5090934;28;20680;-68
2023/09/02 08:10:48;;;;;;;7.17;2.07;;;15.10;99.90;;;;;;5103476;28;20176;-68
2023/09/02 08:13:15;;;;;;;5.27;1.50;;;15.10;99.90;;;;;;5111314;28;20233;-68
2023/09/02 08:15:43;;;;;;;5.70;1.70;;;15.10;99.90;;;;;;5093033;28;20185;-68
2023/09/02 08:18:11;;;;;;;9.40;2.03;;;15.10;99.90;;;;;;5111667;28;20182;-68
2023/09/02 08:20:39;;;;;;;3.50;1.50;;;15.10;99.90;;;;;;5111246;28;20195;-69
2023/09/02 08:23:07;;;;;;;5.93;1.50;;;15.10;99.90;;;;;;5092500;28;20238;-69
2023/09/02 08:25:35;;;;;;;13.60;1.63;;;15.10;99.90;;;;;;5111599;28;20212;-69
2023/09/02 08:28:03;;;;;;;5.63;1.53;;;15.00;99.90;;;;;;5111558;28;20878;-68
2023/09/02 08:30:30;;;;;;;4.83;1.77;;;15.00;99.90;;;;;;5110991;28;20178;-68
2023/09/02 08:32:58;;;;;;;12.17;2.17;;;14.80;99.90;;;;;;5111369;28;20171;-68
2023/09/02 08:35:26;;;;;;;5.53;1.93;;;14.80;99.90;;;;;;5111439;28;20171;-69
2023/09/02 08:37:53;;;;;;;6.37;1.80;;;14.60;99.90;;;;;;5092604;28;20190;-68
2023/09/02 08:40:21;;;;;;;6.57;1.60;;;14.50;99.90;;;;;;5111343;28;20233;-68
2023/09/02 08:42:50;;;;;;;7.90;2.10;;;14.50;99.90;;;;;;5111525;28;20182;-68
2023/09/02 08:45:21;;;;;;;4.87;1.73;;;14.40;99.90;;;;;;5110947;28;20643;-68
2023/09/02 08:47:59;;;;;;;4.37;1.43;;;14.30;99.90;;;;;;5111400;28;20283;-68
2023/09/02 08:50:28;;;;;;;4.87;1.80;;;14.20;99.90;;;;;;5113629;28;20188;-68
2023/09/02 08:52:56;;;;;;;9.67;2.40;;;14.20;99.90;;;;;;5116623;28;20180;-68
2023/09/02 08:55:26;;;;;;;6.67;2.07;;;14.20;99.90;;;;;;5116618;28;20175;-68
2023/09/02 08:57:55;;;;;;;4.60;2.03;;;14.10;99.90;;;;;;5116491;28;20185;-68
2023/09/02 09:00:23;;;;;;;5.33;1.43;;;14.00;99.90;;;;;;5116115;28;20187;-69
2023/09/02 09:02:53;;;;;;;12.40;2.43;;;14.00;99.90;;;;;;5116291;28;20554;-69
2023/09/02 09:05:21;;;;;;;8.57;2.07;;;14.00;99.90;;;;;;5116213;28;20511;-69
2023/09/02 09:07:50;;;;;;;10.77;2.53;;;13.90;99.90;;;;;;5115909;28;20226;-69
2023/09/02 09:10:21;;;;;;;9.10;2.33;;;13.80;99.90;;;;;;5116186;28;20648;-69
2023/09/02 09:12:51;;;;;;;4.57;1.60;;;13.80;99.90;;;;;;5097825;28;20658;-68
2023/09/02 09:15:21;;;;;;;8.23;2.17;;;13.70;99.90;;;;;;5116589;28;20255;-70
2023/09/02 09:17:49;;;;;;;7.13;2.07;;;13.70;99.90;;;;;;5116069;28;20190;-68
2023/09/02 09:20:17;;;;;;;7.93;2.37;;;13.60;99.90;;;;;;5097290;28;20183;-69
2023/09/02 09:22:45;;;;;;;8.53;2.53;;;13.60;99.90;;;;;;5116025;28;20253;-69
2023/09/02 09:25:13;;;;;;;7.73;2.00;;;13.50;99.90;;;;;;5115737;28;20275;-69
2023/09/02 09:27:40;;;;;;;10.13;2.20;;;13.40;99.90;;;;;;5115646;28;20289;-68
2023/09/02 09:30:30;;;;;;;11.17;2.60;;;13.40;99.90;;;;;;5097400;28;20177;-69
2023/09/02 09:33:04;;;;;;;9.73;2.23;;;13.30;99.90;;;;;;5115803;28;20224;-69
2023/09/02 09:35:32;;;;;;;7.17;2.57;;;13.30;99.90;;;;;;5115731;28;20204;-67
2023/09/02 09:38:00;;;;;;;6.80;1.97;;;13.20;99.90;;;;;;5115558;28;20639;-68
2023/09/02 09:40:35;;;;;;;7.43;2.43;;;13.20;99.90;;;;;;5115850;28;20186;-68
2023/09/02 09:43:15;;;;;;;8.63;2.60;;;13.10;99.90;;;;;;5115229;28;20176;-69
2023/09/02 09:45:52;;;;;;;9.40;2.60;;;13.00;99.90;;;;;;5115430;28;20607;-69
2023/09/02 09:48:20;;;;;;;8.37;2.80;;;13.00;99.90;;;;;;5096636;28;20304;-69
2023/09/02 09:50:48;;;;;;;9.10;2.53;;;13.00;99.90;;;;;;5115060;28;20177;-69
2023/09/02 09:53:16;;;;;;;7.20;2.30;;;13.00;99.90;;;;;;5115109;28;20623;-70
2023/09/02 09:55:44;;;;;;;6.73;3.00;;;12.90;99.90;;;;;;5115086;28;20292;-69
2023/09/02 09:58:12;;;;;;;12.47;2.93;;;12.90;99.90;;;;;;5114705;28;20189;-69
2023/09/02 10:00:39;;;;;;;13.93;3.67;;;12.80;99.90;;;;;;5114756;28;20193;-68
2023/09/02 10:03:09;;;;;;;10.07;3.27;;;12.80;99.90;;;;;;5114739;28;20635;-69
2023/09/02 10:05:37;;;;;;;14.90;5.57;;;12.70;99.90;;;;;;5114723;28;20550;-68
2023/09/02 10:08:09;;;;;;;34.67;19.67;;;12.70;99.90;;;;;;5095958;28;20247;-69
2023/09/02 10:10:38;;;;;;;56.37;34.60;;;12.60;99.90;;;;;;5114741;28;20223;-71
2023/09/02 10:13:07;;;;;;;68.43;40.33;;;12.60;99.90;;;;;;5114365;28;20294;-69
2023/09/02 10:15:35;;;;;;;70.47;37.70;;;12.60;99.90;;;;;;5114366;28;20182;-68
2023/09/02 10:18:04;;;;;;;68.17;38.10;;;12.50;99.90;;;;;;5114488;28;20178;-68
2023/09/02 10:20:34;;;;;;;57.77;34.13;;;12.40;99.90;;;;;;5114585;28;20249;-69
2023/09/02 10:23:06;;;;;;;53.50;32.07;;;12.40;99.90;;;;;;5095886;28;20702;-69
2023/09/02 10:25:46;;;;;;;44.80;26.20;;;12.40;99.90;;;;;;5114261;28;20181;-69
2023/09/02 10:28:21;;;;;;;25.77;13.13;;;12.40;99.90;;;;;;5113876;28;20214;-69
2023/09/02 10:30:55;;;;;;;25.60;15.10;;;12.40;99.90;;;;;;5114498;28;20226;-68
2023/09/02 10:33:35;;;;;;;21.30;11.97;;;12.30;99.90;;;;;;5114420;28;20181;-68
2023/09/02 10:36:06;;;;;;;22.37;10.90;;;12.40;99.90;;;;;;5096460;28;20636;-69
2023/09/02 10:38:37;;;;;;;17.10;8.60;;;12.40;99.90;;;;;;5113861;28;20186;-68
2023/09/02 10:41:14;;;;;;;15.17;7.33;;;12.50;99.90;;;;;;5114586;28;20888;-69
2023/09/02 10:43:43;;;;;;;17.77;8.77;;;12.50;99.90;;;;;;5114516;28;20166;-68
2023/09/02 10:46:11;;;;;;;12.80;6.63;;;12.70;99.90;;;;;;5113633;28;20171;-68
2023/09/02 10:48:44;;;;;;;13.13;5.77;;;12.80;99.90;;;;;;5113706;28;20515;-68
2023/09/02 10:51:12;;;;;;;13.93;6.43;;;12.90;99.90;;;;;;5113701;28;20182;-68
2023/09/02 10:53:53;;;;;;;11.07;5.93;;;13.00;99.90;;;;;;5113489;28;20171;-68
2023/09/02 10:56:34;;;;;;;13.23;6.00;;;13.10;99.90;;;;;;5113850;28;20167;-68
2023/09/02 10:59:07;;;;;;;11.67;5.10;;;13.20;99.90;;;;;;5113443;28;20269;-68
2023/09/02 11:01:45;;;;;;;16.47;6.10;;;13.20;99.90;;;;;;5113201;28;20186;-68
2023/09/02 11:04:13;;;;;;;16.13;5.73;;;13.30;99.90;;;;;;5113718;28;20658;-68
2023/09/02 11:07:17;;;;;;;9.50;5.87;;;13.40;99.90;;;;;;5113477;28;20274;-68
2023/09/02 11:10:01;;;;;;;11.37;5.87;;;13.50;99.90;;;;;;5108196;28;20213;-68
2023/09/02 11:12:29;;;;;;;16.23;6.80;;;13.50;99.90;;;;;;5113187;28;20175;-68
2023/09/02 11:15:08;;;;;;;8.73;5.97;;;13.60;99.90;;;;;;5112771;28;20261;-68
2023/09/02 11:17:40;;;;;;;9.20;5.93;;;13.60;99.90;;;;;;5113171;28;20189;-69
2023/09/02 11:20:10;;;;;;;11.47;4.57;;;13.60;99.90;;;;;;5111254;28;20252;-68
2023/09/02 11:23:01;;;;;;;11.03;4.63;;;13.70;99.90;;;;;;5112487;28;20226;-69
2023/09/02 11:25:39;;;;;;;16.77;5.33;;;13.70;99.90;;;;;;5113658;28;20256;-68
2023/09/02 11:28:20;;;;;;;11.13;4.27;;;13.80;99.90;;;;;;5112565;28;20572;-68
2023/09/02 11:31:05;;;;;;;10.97;5.73;;;13.80;99.90;;;;;;5113436;28;20171;-69
2023/09/02 11:33:35;;;;;;;15.00;4.97;;;13.90;99.90;;;;;;5113219;28;20204;-68
2023/09/02 11:36:10;;;;;;;13.57;4.57;;;13.90;99.90;;;;;;5113396;28;20175;-68
2023/09/02 11:38:38;;;;;;;10.83;4.40;;;13.90;99.90;;;;;;5112664;28;20174;-68
2023/09/02 11:41:07;;;;;;;10.57;3.50;;;14.00;99.90;;;;;;5113411;28;20261;-68
2023/09/02 11:43:36;;;;;;;9.10;3.87;;;14.00;99.90;;;;;;5112779;28;20208;-68
2023/09/02 11:46:05;;;;;;;7.90;3.20;;;14.00;99.90;;;;;;5112814;28;20302;-68
2023/09/02 11:48:33;;;;;;;8.73;3.13;;;13.90;99.90;;;;;;5113011;28;20548;-68
2023/09/02 11:51:00;;;;;;;8.53;2.63;;;13.90;99.90;;;;;;5113193;28;20181;-69
2023/09/02 11:53:30;;;;;;;9.83;2.63;;;13.90;99.90;;;;;;5112694;28;20177;-68
2023/09/02 11:55:58;;;;;;;7.07;3.10;;;14.00;99.90;;;;;;5092712;28;20171;-68
2023/09/02 11:58:26;;;;;;;5.70;2.40;;;14.00;99.90;;;;;;5108204;28;20503;-68
2023/09/02 12:00:53;;;;;;;8.93;3.23;;;14.00;99.90;;;;;;5113043;28;20210;-68
2023/09/02 12:03:27;;;;;;;6.33;2.30;;;14.00;99.90;;;;;;5113070;28;20584;-68
2023/09/02 12:05:59;;;;;;;5.40;2.27;;;14.00;99.90;;;;;;5112740;28;20186;-68
2023/09/02 12:08:31;;;;;;;10.47;3.10;;;14.00;99.90;;;;;;5112673;28;20678;-68
2023/09/02 12:11:05;;;;;;;7.43;2.50;;;14.00;99.90;;;;;;5113000;28;20669;-68
2023/09/02 12:13:33;;;;;;;10.70;3.20;;;14.00;99.90;;;;;;5113029;28;20193;-68
2023/09/02 12:16:01;;;;;;;7.27;3.20;;;14.00;99.90;;;;;;5095564;28;20180;-68
2023/09/02 12:18:29;;;;;;;9.23;3.00;;;14.00;99.90;;;;;;5095175;28;20186;-68
2023/09/02 12:20:58;;;;;;;9.10;2.97;;;14.00;99.90;;;;;;5099471;28;20190;-68
2023/09/02 12:23:25;;;;;;;7.07;2.90;;;14.00;99.90;;;;;;5112535;28;20222;-67
2023/09/02 12:26:09;;;;;;;6.83;2.50;;;14.00;99.90;;;;;;5115846;28;20273;-68
2023/09/02 12:28:37;;;;;;;6.70;2.43;;;14.10;99.90;;;;;;5116084;28;20218;-68
2023/09/02 12:31:06;;;;;;;8.43;2.53;;;14.10;99.90;;;;;;5116474;28;20526;-70
2023/09/02 12:33:33;;;;;;;10.27;2.37;;;14.10;99.90;;;;;;5115866;28;20624;-68
2023/09/02 12:36:01;;;;;;;8.40;2.20;;;14.10;99.90;;;;;;5115616;28;20174;-68
2023/09/02 12:38:29;;;;;;;7.67;2.33;;;14.10;99.90;;;;;;5116058;28;20185;-67
2023/09/02 12:40:58;;;;;;;5.80;2.23;;;14.10;99.90;;;;;;5115828;28;20642;-68
2023/09/02 12:43:30;;;;;;;6.13;1.93;;;14.20;99.90;;;;;;5116366;28;20185;-68
2023/09/02 12:45:58;;;;;;;8.40;2.53;;;14.10;99.90;;;;;;5107029;28;20508;-67
2023/09/02 12:48:25;;;;;;;6.27;2.03;;;14.10;99.90;;;;;;5115990;28;20210;-68
2023/09/02 12:50:53;;;;;;;8.73;2.10;;;14.10;99.90;;;;;;5115518;28;20263;-68
2023/09/02 12:53:22;;;;;;;7.20;2.07;;;14.10;99.90;;;;;;5116386;28;20184;-68
2023/09/02 12:55:51;;;;;;;4.27;1.73;;;14.10;99.90;;;;;;5116262;28;20724;-68
2023/09/02 12:58:19;;;;;;;7.10;2.07;;;14.10;99.90;;;;;;5116468;28;20215;-68
2023/09/02 13:00:47;;;;;;;11.60;2.33;;;14.10;99.90;;;;;;5077833;28;20209;-68
2023/09/02 13:03:15;;;;;;;8.80;2.43;;;14.10;99.90;;;;;;5112206;28;20659;-67